Petrel — 2HDR6 — position and weather

sailwx.info

Track history (hours):
 
Tides and Currents Weather Stations Pressure Air Temp Water Temp Dewpoint Dewpoint Depression Visibility Wind Speed Wind Dir Waves Ship Positions

Oceanographic research ship Petrel (Isle of Man)

Last reported at 2019-Nov-19 06:59 UTC. Time now 2019-Nov-20 09:34 UTC.
Position N 31°32' W 117°04'.

Length 76 m; draft 7 m.

Type: Other ship. MMSI: 235102789.

Date/timePositionNaut miles runAvg speedWind from/ knotsBaromVisibWave heightAir tempDewpointWater temp
2019-Nov-19 06:59N 31°32' W 117°04'5410.8
2019-Nov-19 02:01N 32°24' W 117°21'21 8.3
2019-Nov-18 23:30N 32°43' W 117°11'1 1.2
2019-Nov-18 22:28N 32°42' W 117°10'0 0.0
2019-Nov-18 21:58N 32°42' W 117°10'0 0.0
2019-Nov-18 21:28N 32°42' W 117°10'0 0.0
2019-Nov-18 20:28N 32°42' W 117°10'0 0.0
2019-Nov-18 19:58N 32°42' W 117°10'0 0.0
2019-Nov-18 19:28N 32°42' W 117°10'0 0.0
2019-Nov-18 16:00N 32°42' W 117°10'3 6.5
2019-Nov-18 15:30N 32°43' W 117°13'4 1.8
2019-Nov-18 13:01N 32°38' W 117°12'0 0.0
2019-Nov-18 12:30N 32°38' W 117°12'0 0.0
2019-Nov-18 11:00N 32°38' W 117°12'0 0.0
2019-Nov-18 09:30N 32°38' W 117°12'0 0.0
2019-Nov-18 05:30N 32°38' W 117°12'0 0.0
2019-Nov-18 05:01N 32°38' W 117°12'0 0.0
2019-Nov-18 04:00N 32°38' W 117°12'0 0.0
2019-Nov-18 03:30N 32°38' W 117°12'0 0.0
2019-Nov-18 02:00N 32°38' W 117°12'0 0.0
2019-Nov-18 01:01N 32°38' W 117°12'0 0.0
2019-Nov-17 23:30N 32°38' W 117°12'0 0.0
2019-Nov-17 23:00N 32°38' W 117°12'0 0.0
2019-Nov-17 22:01N 32°38' W 117°12'8 3.8
2019-Nov-17 20:00N 32°36' W 117°20'2610.3
2019-Nov-17 17:30N 32°28' W 117°49'510.5
2019-Nov-17 17:01N 32°27' W 117°55'9810.4
2019-Nov-17 07:30N 31°57' W 119°46'3110.2
2019-Nov-17 04:31N 31°48' W 120°20'510.2
2019-Nov-17 04:01N 31°46' W 120°26'510.2
2019-Nov-17 03:30N 31°45' W 120°32'21 9.7
2019-Nov-17 01:18N 31°38' W 120°56'  
Track history (hours):
 
Tides and Currents Weather Stations Pressure Air Temp Water Temp Dewpoint Dewpoint Depression Visibility Wind Speed Wind Dir Waves Ship Positions

Oceanographic research ship Petrel (Isle of Man)

Last reported at 2019-Nov-19 06:59 UTC. Time now 2019-Nov-20 09:34 UTC.
Position N 31°32' W 117°04'.

Length 76 m; draft 7 m.

Type: Other ship. MMSI: 235102789.

Date/timePositionNaut miles runAvg speedWind from/ knotsBaromVisibWave heightAir tempDewpointWater temp
2019-Nov-19 06:59N 31°32' W 117°04'5410.8
2019-Nov-19 02:01N 32°24' W 117°21'21 8.3
2019-Nov-18 23:30N 32°43' W 117°11'1 1.2
2019-Nov-18 22:28N 32°42' W 117°10'0 0.0
2019-Nov-18 21:58N 32°42' W 117°10'0 0.0
2019-Nov-18 21:28N 32°42' W 117°10'0 0.0
2019-Nov-18 20:28N 32°42' W 117°10'0 0.0
2019-Nov-18 19:58N 32°42' W 117°10'0 0.0
2019-Nov-18 19:28N 32°42' W 117°10'0 0.0
2019-Nov-18 16:00N 32°42' W 117°10'3 6.5
2019-Nov-18 15:30N 32°43' W 117°13'4 1.8
2019-Nov-18 13:01N 32°38' W 117°12'0 0.0
2019-Nov-18 12:30N 32°38' W 117°12'0 0.0
2019-Nov-18 11:00N 32°38' W 117°12'0 0.0
2019-Nov-18 09:30N 32°38' W 117°12'0 0.0
2019-Nov-18 05:30N 32°38' W 117°12'0 0.0
2019-Nov-18 05:01N 32°38' W 117°12'0 0.0
2019-Nov-18 04:00N 32°38' W 117°12'0 0.0
2019-Nov-18 03:30N 32°38' W 117°12'0 0.0
2019-Nov-18 02:00N 32°38' W 117°12'0 0.0
2019-Nov-18 01:01N 32°38' W 117°12'0 0.0
2019-Nov-17 23:30N 32°38' W 117°12'0 0.0
2019-Nov-17 23:00N 32°38' W 117°12'0 0.0
2019-Nov-17 22:01N 32°38' W 117°12'8 3.8
2019-Nov-17 20:00N 32°36' W 117°20'2610.3
2019-Nov-17 17:30N 32°28' W 117°49'510.5
2019-Nov-17 17:01N 32°27' W 117°55'9810.4
2019-Nov-17 07:30N 31°57' W 119°46'3110.2
2019-Nov-17 04:31N 31°48' W 120°20'510.2
2019-Nov-17 04:01N 31°46' W 120°26'510.2
2019-Nov-17 03:30N 31°45' W 120°32'21 9.7
2019-Nov-17 01:18N 31°38' W 120°56'  

Dump ship's entire track history